Airfield :
LOGIN :

Register | Disclaimer

   EN    FR    IT 

 










Legend :    VFR   Marginal VFR   IFR   Intensive IFR   Very Intensive IFR
Visi :
Ceiling :
>= 8 km
>= 3000ft
5 to 8 km
1000 to 3000 ft
1500m to 5 km
500 to 1000 ft
800 to 1500m
200 to 500 ft
< 800m
< 200 ft
Symbols :   Thunderstorms  Fog  Heavy snow  Heavy precipitations  Wind > 20 kt
SIGMETs :     Misc.  Thunderstorms  Icing  Turbulence  Mountain Waves  Volcanic Ashes







- Airport Elevation : 1487 ft
- IATA code : MUC


EDDM - München Franz Josef Strauss

CURRENT METAR :
  • 221250Z 29015KT 260V330 CAVOK 15/04 Q1023 NOSIG

EXPIRED METARs :
  • 221220Z 28013KT 250V320 CAVOK 15/04 Q1023 NOSIG
  • 221150Z 29015KT 250V320 CAVOK 15/03 Q1023 NOSIG
  • 221120Z 29013KT 250V320 CAVOK 16/05 Q1023 NOSIG
  • 221050Z 28013KT 250V310 9999 FEW048 SCT055 15/03 Q1023 NOSIG
  • 221020Z 29013KT 250V330 9999 FEW048 SCT055 16/03 Q1023 NOSIG

TAF TAF EDDM
Valid from the 22 at 12:00 until the 23 at 18:00 UTC


221100Z 2212/2318 29015G25KT 9999 BKN045
PROB30
TEMPO 2212/2217 31020G30KT SHRA BKN040TCU
BECMG 2216/2218 30010KT
BECMG 2222/2224 25005KT
BECMG 2307/2309 28010KT
No reported NOTAMs for that airfield.



MET'MAP, your aeronautical weather chart ! - Copyright ORBIFLY December 2007 - Disclaimer

ORBIFLY MET'MAP TEAM :

Programming & Development : Alexandra Zaïnal
Concept & Development : Baudouin d'Aumeries
Co-Development & Prog : Marc-Olivier Méhu
Technical & hardware support : Manuel Goepfert

Contact : metmap@orbifly.com




SOURCES & CREDITS :

   NOAA